Time;durP1;ratioP1;P1;durP2;ratioP2;P2;SDS_P1;SDS_P2;PMS_P1;PMS_P2;Temp;Humidity;BMP_temperature;BMP_pressure;BME280_temperature;BME280_humidity;BME280_pressure;Samples;Min_cycle;Max_cycle;Signal;HPM_P1;HPM_P2
2023/01/03 00:00:38;;;;;;;17.38;3.13;;;;;;;4.82;100.00;101451.91;5028216;28;20036;-72
2023/01/03 00:03:04;;;;;;;15.23;2.75;;;;;;;4.80;100.00;101453.19;4998554;28;20666;-72
2023/01/03 00:05:29;;;;;;;13.35;2.90;;;;;;;4.78;100.00;101450.66;5015847;28;20034;-72
2023/01/03 00:07:55;;;;;;;10.85;2.97;;;;;;;4.75;100.00;101453.06;4998501;28;20036;-72
2023/01/03 00:10:20;;;;;;;11.77;2.85;;;;;;;4.76;100.00;101458.31;5014926;28;20177;-72
2023/01/03 00:12:46;;;;;;;9.88;2.70;;;;;;;4.70;100.00;101456.50;4998390;28;20092;-72
2023/01/03 00:15:14;;;;;;;10.73;2.90;;;;;;;4.69;100.00;101455.66;5014686;28;20478;-72
2023/01/03 00:17:40;;;;;;;11.57;2.65;;;;;;;4.69;100.00;101461.16;5014729;28;20041;-72
2023/01/03 00:20:07;;;;;;;9.32;2.53;;;;;;;4.66;100.00;101458.03;5004902;28;20030;-72
2023/01/03 00:22:33;;;;;;;9.48;2.65;;;;;;;4.69;100.00;101461.16;4998432;28;20045;-72
2023/01/03 00:24:58;;;;;;;11.45;2.80;;;;;;;4.64;100.00;101463.75;5014429;28;20037;-72
2023/01/03 00:27:24;;;;;;;6.45;2.50;;;;;;;4.68;100.00;101458.63;5015428;28;20050;-72
2023/01/03 00:29:49;;;;;;;10.02;2.55;;;;;;;4.64;100.00;101455.50;4998211;28;20534;-72
2023/01/03 00:32:15;;;;;;;10.27;2.45;;;;;;;4.64;100.00;101454.69;5007760;28;20029;-72
2023/01/03 00:34:42;;;;;;;9.82;2.67;;;;;;;4.61;100.00;101447.72;5004696;28;20042;-72
2023/01/03 00:37:08;;;;;;;11.63;2.70;;;;;;;4.59;100.00;101444.34;4998011;28;20061;-72
2023/01/03 00:39:33;;;;;;;10.95;2.63;;;;;;;4.57;100.00;101441.00;5015670;28;20036;-72
2023/01/03 00:41:59;;;;;;;20.02;2.90;;;;;;;4.57;100.00;101449.28;5014226;28;20029;-72
2023/01/03 00:44:24;;;;;;;8.10;2.35;;;;;;;4.55;100.00;101451.41;5015475;28;20033;-72
2023/01/03 00:46:50;;;;;;;8.82;2.42;;;;;;;4.53;100.00;101453.53;5053928;28;20025;-72
2023/01/03 00:49:15;;;;;;;10.85;2.60;;;;;;;4.52;100.00;101456.53;5021071;28;20092;-72
2023/01/03 00:51:41;;;;;;;11.38;2.55;;;;;;;4.48;100.00;101464.38;4994346;28;20111;-72
2023/01/03 00:54:07;;;;;;;8.23;2.25;;;;;;;4.49;100.00;101466.09;5030500;28;20550;-72
2023/01/03 00:56:35;;;;;;;9.93;2.10;;;;;;;4.50;100.00;101464.16;5005506;28;20033;-72
2023/01/03 00:59:01;;;;;;;11.15;2.90;;;;;;;4.51;100.00;101469.44;5019829;28;20385;-72
2023/01/03 01:01:48;;;;;;;6.68;2.20;;;;;;;4.47;100.00;101466.31;5018385;28;20105;-72
2023/01/03 01:04:25;;;;;;;7.35;2.25;;;;;;;4.45;100.00;101471.19;5019835;28;20027;-72
2023/01/03 01:06:53;;;;;;;9.20;2.30;;;;;;;4.44;100.00;101480.53;5018286;28;20030;-72
2023/01/03 01:09:22;;;;;;;8.48;2.33;;;;;;;4.43;100.00;101475.25;5019442;28;20030;-72
2023/01/03 01:11:48;;;;;;;5.75;2.40;;;;;;;4.41;100.00;101480.97;5019223;28;20389;-72
2023/01/03 01:14:19;;;;;;;11.20;2.78;;;;;;;4.40;100.00;101467.44;5001458;28;20030;-72
2023/01/03 01:16:50;;;;;;;5.57;2.20;;;;;;;4.39;100.00;101469.38;5017875;28;20029;-72
2023/01/03 01:19:16;;;;;;;8.10;2.47;;;;;;;4.40;100.00;101476.56;5017773;28;20453;-72
2023/01/03 01:21:42;;;;;;;9.43;1.85;;;;;;;4.42;100.00;101468.91;5019033;28;20026;-72
2023/01/03 01:24:07;;;;;;;11.48;2.38;;;;;;;4.39;100.00;101474.03;5001394;28;20391;-72
2023/01/03 01:26:32;;;;;;;11.15;2.30;;;;;;;4.39;100.00;101482.28;5018881;28;20034;-72
2023/01/03 01:28:58;;;;;;;10.15;2.50;;;;;;;4.42;100.00;101479.06;5017968;28;20042;-72
2023/01/03 01:31:24;;;;;;;9.55;2.22;;;;;;;4.40;100.00;101486.69;5017881;28;20494;-72
2023/01/03 01:33:51;;;;;;;9.98;2.05;;;;;;;4.38;100.00;101477.88;5004642;28;20037;-72
2023/01/03 01:36:18;;;;;;;8.43;2.08;;;;;;;4.40;100.00;101475.69;5000788;28;20025;-72
2023/01/03 01:38:45;;;;;;;8.43;1.92;;;;;;;4.37;100.00;101482.50;5017352;28;20050;-72
2023/01/03 01:41:14;;;;;;;8.65;2.33;;;;;;;4.36;100.00;101478.06;5017398;28;20029;-72
2023/01/03 01:46:42;;;;;;;4.93;1.67;;;;;;;4.36;100.00;101482.75;5016575;28;20061;-72
2023/01/03 01:49:12;;;;;;;8.77;2.40;;;;;;;4.33;100.00;101483.19;5017037;28;20026;-72
2023/01/03 01:51:37;;;;;;;8.32;2.30;;;;;;;4.31;100.00;101479.84;4988441;28;20057;-72
2023/01/03 01:54:03;;;;;;;12.85;2.28;;;;;;;4.31;100.00;101483.41;4968648;28;20026;-72
2023/01/03 01:56:44;;;;;;;15.38;2.55;;;;;;;4.30;100.00;101486.41;5004235;28;20026;-72
2023/01/03 01:59:10;;;;;;;7.53;2.60;;;;;;;4.25;100.00;101487.91;5018192;28;20072;-72
2023/01/03 02:01:35;;;;;;;10.23;2.15;;;;;;;4.26;100.00;101491.50;5017303;28;20080;-72
2023/01/03 02:04:04;;;;;;;6.95;1.70;;;;;;;4.22;100.00;101496.63;5018111;28;20479;-72
2023/01/03 02:06:30;;;;;;;7.78;1.83;;;;;;;4.23;100.00;101497.47;5000297;28;20025;-72
2023/01/03 02:08:56;;;;;;;9.23;2.38;;;;;;;4.21;100.00;101494.13;5000751;28;20030;-72
2023/01/03 02:11:30;;;;;;;8.75;2.03;;;;;;;4.21;100.00;101507.88;5017985;28;20478;-72
2023/01/03 02:14:05;;;;;;;11.23;1.98;;;;;;;4.18;100.00;101513.78;5016807;28;20029;-72
2023/01/03 02:16:35;;;;;;;9.93;2.28;;;;;;;4.16;100.00;101507.72;5018177;28;20482;-72
2023/01/03 02:19:10;;;;;;;9.18;2.38;;;;;;;4.15;100.00;101517.88;5010164;28;20025;-72
2023/01/03 02:22:13;;;;;;;13.15;2.20;;;;;;;4.14;100.00;101515.34;5005415;28;20036;-72
2023/01/03 02:24:57;;;;;;;8.05;1.85;;;;;;;4.12;100.00;101511.97;5006395;28;20037;-72
2023/01/03 02:27:35;;;;;;;10.68;2.17;;;;;;;4.13;100.00;101509.00;5023398;28;20068;-72
2023/01/03 02:30:23;;;;;;;10.43;2.40;;;;;;;4.13;100.00;101517.25;5023131;28;20029;-72
2023/01/03 02:33:01;;;;;;;10.88;2.40;;;;;;;4.10;100.00;101516.88;5016620;28;20037;-72
2023/01/03 02:35:36;;;;;;;11.85;2.33;;;;;;;4.12;100.00;101517.47;5040163;28;20029;-72
2023/01/03 02:38:10;;;;;;;12.70;2.38;;;;;;;4.13;100.00;101524.66;5005987;28;20077;-72
2023/01/03 02:40:37;;;;;;;11.43;2.42;;;;;;;4.14;100.00;101518.09;5016530;28;20033;-72
2023/01/03 02:43:07;;;;;;;10.32;2.17;;;;;;;4.13;100.00;101520.00;5015435;28;20072;-72
2023/01/03 02:45:45;;;;;;;8.45;2.33;;;;;;;4.15;100.00;101520.63;5012710;28;20041;-72
2023/01/03 02:48:27;;;;;;;9.23;2.60;;;;;;;4.16;100.00;101513.22;5016110;28;20053;-72
2023/01/03 02:50:54;;;;;;;12.77;2.60;;;;;;;4.18;100.00;101511.91;5015792;28;20030;-72
2023/01/03 02:53:36;;;;;;;8.05;2.35;;;;;;;4.23;100.00;101511.22;5000240;28;20379;-72
2023/01/03 02:56:05;;;;;;;12.13;2.90;;;;;;;4.23;100.00;101509.34;4999908;28;20050;-72
2023/01/03 02:58:31;;;;;;;11.00;2.28;;;;;;;4.22;100.00;101507.63;4999853;28;20071;-72
2023/01/03 03:00:58;;;;;;;5.78;2.10;;;;;;;4.24;100.00;101512.91;5016130;28;20041;-72
2023/01/03 03:03:26;;;;;;;13.10;2.42;;;;;;;4.24;100.00;101500.00;5016136;28;20058;-72
2023/01/03 03:05:55;;;;;;;9.45;2.53;;;;;;;4.25;100.00;101501.66;4999422;28;20494;-72
2023/01/03 03:08:21;;;;;;;13.55;2.60;;;;;;;4.24;100.00;101505.50;4999921;28;20033;-72
2023/01/03 03:13:51;;;;;;;7.53;2.00;;;;;;;4.25;100.00;101501.66;5002033;28;20033;-72
2023/01/03 03:16:46;;;;;;;11.13;2.33;;;;;;;4.24;100.00;101488.16;5005302;28;20491;-72
2023/01/03 03:25:22;;;;;;;10.30;3.70;;;;;;;4.19;100.00;101485.25;5003629;28;20124;-72
2023/01/03 03:30:32;;;;;;;13.27;3.95;;;;;;;4.20;100.00;101482.25;5017152;28;20387;-72
2023/01/03 03:33:00;;;;;;;16.98;3.35;;;;;;;4.18;100.00;101487.16;5015370;28;20030;-72
2023/01/03 03:35:26;;;;;;;10.10;3.13;;;;;;;4.17;100.00;101492.88;4999188;28;20036;-72
2023/01/03 03:37:57;;;;;;;12.45;3.58;;;;;;;4.15;100.00;101495.00;5113447;27;20382;-71
2023/01/03 03:46:11;;;;;;;9.60;3.00;;;;;;;4.09;100.00;101491.25;5112721;28;20085;-71
2023/01/03 03:51:26;;;;;;;12.85;3.10;;;;;;;4.06;100.00;101491.72;5112181;28;20087;-71
2023/01/03 03:53:51;;;;;;;14.30;3.35;;;;;;;4.04;100.00;101488.38;5095212;28;20028;-71
2023/01/03 03:56:18;;;;;;;11.10;2.80;;;;;;;4.03;100.00;101486.69;5113048;28;20522;-72
2023/01/03 03:58:46;;;;;;;10.68;3.20;;;;;;;4.00;100.00;101490.72;5111707;28;20039;-72
2023/01/03 04:01:14;;;;;;;11.90;2.78;;;;;;;4.00;100.00;101493.47;5094936;28;20073;-71
2023/01/03 04:03:40;;;;;;;10.73;2.90;;;;;;;4.00;100.00;101485.22;5077908;28;20425;-72
2023/01/03 04:06:09;;;;;;;8.88;2.50;;;;;;;3.98;100.00;101494.75;5111585;28;20413;-72
2023/01/03 04:08:34;;;;;;;11.02;2.63;;;;;;;4.00;100.00;101489.88;5095115;28;20098;-72
2023/01/03 04:11:06;;;;;;;7.22;2.78;;;;;;;3.94;100.00;101485.31;5111722;28;20035;-72
2023/01/03 04:13:35;;;;;;;11.85;2.90;;;;;;;3.98;100.00;101490.13;5095268;28;20027;-72
2023/01/03 04:16:01;;;;;;;15.70;3.40;;;;;;;3.95;100.00;101500.72;5111780;28;20050;-72
2023/01/03 04:18:26;;;;;;;11.80;3.15;;;;;;;3.96;100.00;101492.25;5094608;28;20032;-72
2023/01/03 04:20:52;;;;;;;7.45;3.42;;;;;;;3.95;100.00;101500.72;5109428;28;20126;-71
2023/01/03 04:23:17;;;;;;;13.80;3.08;;;;;;;3.95;100.00;101492.47;5106540;28;20039;-71
2023/01/03 04:25:43;;;;;;;11.32;3.03;;;;;;;3.96;100.00;101497.75;5101777;28;20382;-71
2023/01/03 04:28:08;;;;;;;7.72;2.45;;;;;;;3.98;100.00;101494.75;5094605;28;20038;-71
2023/01/03 04:30:34;;;;;;;6.40;2.20;;;;;;;3.98;100.00;101503.00;5112559;28;20048;-71
2023/01/03 04:33:03;;;;;;;12.85;2.38;;;;;;;3.98;100.00;101500.25;5077698;28;20107;-71
2023/01/03 04:35:30;;;;;;;11.40;2.40;;;;;;;3.98;100.00;101492.88;5097736;28;20678;-71
2023/01/03 04:37:56;;;;;;;16.15;2.97;;;;;;;4.01;100.00;101497.06;5093706;28;20035;-71
2023/01/03 04:40:21;;;;;;;11.32;2.60;;;;;;;4.01;100.00;101494.31;5111067;28;20024;-71
2023/01/03 04:45:31;;;;;;;7.28;3.53;;;;;;;4.03;100.00;101503.16;5111105;28;20039;-71
2023/01/03 04:47:56;;;;;;;12.85;3.08;;;;;;;3.99;100.00;101491.78;5101441;28;20047;-71
2023/01/03 04:50:22;;;;;;;8.30;2.28;;;;;;;3.98;100.00;101494.75;5080089;28;20499;-71
2023/01/03 04:52:47;;;;;;;10.85;2.90;;;;;;;3.96;100.00;101491.41;5098538;28;20024;-71
2023/01/03 04:55:13;;;;;;;12.25;2.90;;;;;;;3.99;100.00;101496.47;5098674;28;20035;-71
2023/01/03 04:57:38;;;;;;;13.10;2.92;;;;;;;3.98;100.00;101506.63;5098384;28;20025;-72
2023/01/03 05:00:04;;;;;;;9.70;3.15;;;;;;;4.01;100.00;101499.81;5098304;28;20032;-72
2023/01/03 05:02:30;;;;;;;11.77;3.08;;;;;;;3.96;100.00;101495.00;5080462;28;20051;-72
2023/01/03 05:04:55;;;;;;;9.35;2.53;;;;;;;3.96;100.00;101492.25;5098002;28;20024;-72
2023/01/03 05:07:21;;;;;;;9.13;2.80;;;;;;;3.97;100.00;101495.84;5097276;28;20027;-72
2023/01/03 05:09:46;;;;;;;10.77;2.95;;;;;;;3.95;100.00;101495.22;5098260;28;20032;-72
2023/01/03 05:12:12;;;;;;;12.30;2.97;;;;;;;3.95;100.00;101495.22;5096701;28;20027;-72
2023/01/03 05:14:40;;;;;;;10.77;3.08;;;;;;;3.95;100.00;101487.81;5096818;28;20035;-72
2023/01/03 05:17:07;;;;;;;13.82;3.10;;;;;;;3.97;100.00;101498.59;5096863;28;20536;-72
2023/01/03 05:19:32;;;;;;;15.23;3.28;;;;;;;3.94;100.00;101496.28;5097884;28;20024;-72
2023/01/03 05:27:26;;;;;;;11.60;3.10;;;;;;;3.96;100.00;101502.41;5071969;28;20027;-72
2023/01/03 05:29:52;;;;;;;10.75;2.47;;;;;;;3.94;100.00;101501.78;5063263;28;20372;-72
2023/01/03 05:32:17;;;;;;;13.85;3.13;;;;;;;3.95;100.00;101497.97;5096677;28;20392;-72
2023/01/03 05:34:43;;;;;;;10.00;2.72;;;;;;;3.95;100.00;101500.72;5095774;28;20027;-72
2023/01/03 05:37:08;;;;;;;9.18;2.47;;;;;;;3.97;100.00;101506.84;5079322;28;20044;-72
2023/01/03 05:39:34;;;;;;;10.55;2.80;;;;;;;3.96;100.00;101505.16;5079621;28;20052;-72
2023/01/03 05:41:59;;;;;;;14.00;3.33;;;;;;;3.96;100.00;101502.41;5096595;28;20028;-72
2023/01/03 05:44:26;;;;;;;14.05;3.17;;;;;;;3.97;100.00;101504.91;5096279;28;20028;-72
2023/01/03 05:46:52;;;;;;;16.02;2.90;;;;;;;3.95;100.00;101512.53;5079407;28;20024;-72
2023/01/03 05:49:17;;;;;;;10.18;2.53;;;;;;;3.96;100.00;101510.66;5097024;28;20585;-72
2023/01/03 05:51:43;;;;;;;11.75;2.25;;;;;;;3.98;100.00;101516.75;5097380;28;20032;-72
2023/01/03 05:54:11;;;;;;;9.00;2.50;;;;;;;3.98;100.00;101520.38;5097397;28;20039;-72
2023/01/03 05:56:37;;;;;;;12.80;2.58;;;;;;;3.97;100.00;101515.91;5096041;28;20036;-72
2023/01/03 05:59:03;;;;;;;8.80;2.47;;;;;;;3.96;100.00;101522.50;5096663;28;20031;-72
2023/01/03 06:01:28;;;;;;;14.38;2.92;;;;;;;4.00;100.00;101517.38;5095274;28;20024;-72
2023/01/03 06:03:54;;;;;;;12.90;3.20;;;;;;;4.00;100.00;101520.94;5078603;28;20036;-72
2023/01/03 06:06:20;;;;;;;11.15;2.78;;;;;;;3.99;100.00;101519.28;5062605;28;20016;-72
2023/01/03 06:08:45;;;;;;;9.50;2.72;;;;;;;4.02;100.00;101518.00;5088237;28;20086;-72
2023/01/03 06:11:12;;;;;;;11.88;3.05;;;;;;;4.02;100.00;101524.31;5095683;28;20020;-72
2023/01/03 06:13:38;;;;;;;11.75;2.80;;;;;;;4.02;100.00;101521.56;5095520;28;20028;-72
2023/01/03 06:18:52;;;;;;;9.57;2.78;;;;;;;4.03;100.00;101511.41;5096309;28;20039;-72
2023/01/03 06:21:18;;;;;;;12.32;2.97;;;;;;;4.04;100.00;101518.63;5059443;28;20028;-72
2023/01/03 06:23:46;;;;;;;12.73;2.47;;;;;;;4.03;100.00;101508.66;5090449;28;20381;-72
2023/01/03 06:26:15;;;;;;;15.57;2.40;;;;;;;4.05;100.00;101506.53;5086629;28;20028;-72
2023/01/03 06:28:41;;;;;;;8.50;2.60;;;;;;;4.04;100.00;101513.13;5096590;28;20028;-72
2023/01/03 06:31:07;;;;;;;17.08;2.13;;;;;;;4.04;100.00;101504.88;5095362;28;20043;-72
2023/01/03 06:33:32;;;;;;;14.45;2.47;;;;;;;4.04;100.00;101504.88;5095303;28;20433;-72
2023/01/03 06:36:09;;;;;;;18.17;2.90;;;;;;;4.03;100.00;101501.25;5096132;28;20055;-72
2023/01/03 06:38:35;;;;;;;12.05;2.30;;;;;;;4.05;100.00;101495.53;5078340;28;20107;-72
2023/01/03 06:41:01;;;;;;;12.68;2.58;;;;;;;4.04;100.00;101493.88;5095391;28;20028;-72
2023/01/03 06:43:27;;;;;;;12.93;2.67;;;;;;;4.04;100.00;101504.88;5093895;28;20110;-72
2023/01/03 06:54:06;;;;;;;11.90;2.25;;;;;;;4.06;100.00;101516.47;5080691;28;20020;-72
2023/01/03 06:56:31;;;;;;;16.27;2.72;;;;;;;4.07;100.00;101512.66;5094829;28;20587;-72
2023/01/03 06:58:57;;;;;;;10.13;2.35;;;;;;;4.07;100.00;101514.53;5094921;28;20039;-73
2023/01/03 07:01:22;;;;;;;8.18;2.15;;;;;;;4.07;100.00;101515.41;5095040;28;20058;-72
2023/01/03 07:03:48;;;;;;;11.52;1.95;;;;;;;4.09;100.00;101517.91;5077604;28;20024;-72
2023/01/03 07:06:13;;;;;;;12.35;2.35;;;;;;;4.07;100.00;101509.06;5061363;28;20027;-72
2023/01/03 07:08:39;;;;;;;15.50;2.17;;;;;;;4.08;100.00;101516.25;5077857;28;20054;-72
2023/01/03 07:11:04;;;;;;;13.18;2.40;;;;;;;4.08;100.00;101519.84;5094592;28;20444;-72
2023/01/03 07:16:17;;;;;;;7.55;1.75;;;;;;;4.07;100.00;101520.91;5083990;28;20142;-71
2023/01/03 07:18:42;;;;;;;16.42;2.70;;;;;;;4.07;100.00;101514.53;5060609;28;20027;-72
2023/01/03 07:21:08;;;;;;;13.43;2.20;;;;;;;4.09;100.00;101523.41;5094677;28;20081;-74
2023/01/03 07:23:34;;;;;;;18.67;2.72;;;;;;;4.10;100.00;101525.94;5092939;28;20035;-72
2023/01/03 07:25:59;;;;;;;14.48;3.15;;;;;;;4.13;100.00;101538.41;5084292;28;20035;-72
2023/01/03 07:28:25;;;;;;;11.25;1.98;;;;;;;4.15;100.00;101533.50;5060772;28;20034;-72
2023/01/03 07:30:50;;;;;;;13.38;2.40;;;;;;;4.15;100.00;101537.13;5091448;28;20035;-72
2023/01/03 07:33:16;;;;;;;20.30;2.20;;;;;;;4.18;100.00;101541.28;5094316;28;20032;-72
2023/01/03 07:35:42;;;;;;;17.40;2.08;;;;;;;4.19;100.00;101538.34;5094081;28;20047;-72
2023/01/03 07:38:08;;;;;;;12.45;2.03;;;;;;;4.20;100.00;101539.16;5094032;28;20073;-72
2023/01/03 07:40:33;;;;;;;10.25;1.90;;;;;;;4.21;100.00;101544.47;5095740;28;20028;-72
2023/01/03 07:45:43;;;;;;;16.42;2.25;;;;;;;4.24;100.00;101548.66;5086784;28;20112;-71
2023/01/03 07:48:09;;;;;;;9.75;2.22;;;;;;;4.24;100.00;101548.66;5077590;28;20055;-71
2023/01/03 07:50:35;;;;;;;16.60;2.22;;;;;;;4.24;100.00;101543.16;5060636;28;20031;-72
2023/01/03 07:53:01;;;;;;;10.95;2.10;;;;;;;4.24;100.00;101538.50;5095310;28;20488;-72
2023/01/03 07:55:27;;;;;;;11.70;1.95;;;;;;;4.22;100.00;101532.38;5094066;28;20095;-72
2023/01/03 07:57:54;;;;;;;13.55;1.90;;;;;;;4.23;100.00;101542.31;5095379;28;20374;-72
2023/01/03 08:00:20;;;;;;;12.25;2.20;;;;;;;4.25;100.00;101539.34;5094370;28;20040;-72
2023/01/03 08:02:45;;;;;;;9.50;2.13;;;;;;;4.27;100.00;101536.38;5095432;28;20032;-72
2023/01/03 08:05:11;;;;;;;10.95;2.25;;;;;;;4.27;100.00;101530.88;5095133;28;20039;-72
2023/01/03 08:07:36;;;;;;;12.60;1.67;;;;;;;4.27;100.00;101531.72;5060373;28;20024;-71
2023/01/03 08:15:31;;;;;;;10.52;2.00;;;;;;;4.30;100.00;101535.91;5094231;28;20039;-72
2023/01/03 08:17:56;;;;;;;13.30;2.10;;;;;;;4.31;100.00;101534.84;5095153;28;20050;-72
2023/01/03 08:20:21;;;;;;;13.60;2.60;;;;;;;4.30;100.00;101535.91;5077062;28;20043;-72
2023/01/03 08:22:47;;;;;;;14.10;2.42;;;;;;;4.32;100.00;101539.25;5089399;28;20028;-72
2023/01/03 08:25:12;;;;;;;18.85;2.28;;;;;;;4.34;100.00;101537.13;5089010;28;20041;-72
2023/01/03 08:27:38;;;;;;;20.23;2.45;;;;;;;4.37;100.00;101559.50;5080809;28;20047;-71
2023/01/03 08:30:04;;;;;;;8.82;2.05;;;;;;;4.40;100.00;101559.09;5045749;28;20021;-71
2023/01/03 08:32:30;;;;;;;19.90;2.40;;;;;;;4.44;100.00;101562.22;5097697;28;20434;-72
2023/01/03 08:34:56;;;;;;;19.77;2.65;;;;;;;4.49;100.00;101567.88;5097472;28;20028;-72
2023/01/03 08:37:22;;;;;;;12.65;2.45;;;;;;;4.54;100.00;101581.78;5097322;28;20092;-71
2023/01/03 08:39:55;;;;;;;16.23;2.80;;;;;;;4.60;100.00;101580.03;5098640;28;20031;-72
2023/01/03 08:42:22;;;;;;;13.27;1.90;;;;;;;4.64;100.00;101582.09;5079609;28;20076;-72
2023/01/03 08:44:48;;;;;;;11.45;1.85;;;;;;;4.70;100.00;101585.81;5083206;28;20036;-72
2023/01/03 08:47:13;;;;;;;17.20;3.20;;;;;;;4.77;100.00;101588.53;5060760;28;20036;-72
2023/01/03 08:49:39;;;;;;;16.90;2.53;;;;;;;4.81;100.00;101582.31;5093490;28;20024;-72
2023/01/03 08:52:04;;;;;;;18.27;3.05;;;;;;;4.87;100.00;101586.91;5097190;28;20031;-72
2023/01/03 08:54:30;;;;;;;20.25;2.33;;;;;;;4.96;100.00;101598.47;5097045;28;20028;-72
2023/01/03 08:56:55;;;;;;;14.93;2.13;;;;;;;5.02;100.00;101605.78;5098493;28;20020;-72
2023/01/03 08:59:21;;;;;;;19.00;2.50;;;;;;;5.08;100.00;101604.88;5098517;28;20410;-72
2023/01/03 09:01:47;;;;;;;16.35;2.33;;;;;;;5.15;100.00;101605.63;5097406;28;20046;-72
2023/01/03 09:04:12;;;;;;;15.05;2.67;;;;;;;5.20;100.00;101606.84;5097964;28;20028;-71
2023/01/03 09:06:38;;;;;;;11.32;2.33;;;;;;;5.27;100.00;101608.44;5098235;28;20024;-72
2023/01/03 09:09:07;;;;;;;15.43;2.20;;;;;;;5.32;100.00;101603.09;5097126;28;20055;-71
2023/01/03 09:11:32;;;;;;;14.88;2.50;;;;;;;5.41;100.00;101614.63;5079997;28;20468;-72
2023/01/03 09:13:58;;;;;;;18.27;3.35;;;;;;;5.49;100.00;101589.50;5098171;28;20024;-72
2023/01/03 09:16:23;;;;;;;16.05;2.63;;;;;;;5.59;100.00;101594.44;5096785;28;20106;-72
2023/01/03 09:18:49;;;;;;;18.77;2.92;;;;;;;5.67;100.00;101596.03;5096224;28;20032;-72
2023/01/03 09:21:14;;;;;;;15.30;2.83;;;;;;;5.75;100.00;101595.69;5097913;28;20028;-72
2023/01/03 09:23:40;;;;;;;17.58;2.55;;;;;;;5.84;100.00;101599.78;5094094;28;20028;-72
2023/01/03 09:26:05;;;;;;;16.27;3.05;;;;;;;5.93;100.00;101608.53;5086929;28;20094;-72
2023/01/03 09:28:31;;;;;;;21.67;2.65;;;;;;;6.06;100.00;101604.78;5096761;28;20052;-72
2023/01/03 09:30:57;;;;;;;12.60;2.20;;;;;;;6.16;100.00;101600.34;5097548;28;20419;-72
2023/01/03 09:33:22;;;;;;;19.88;2.65;;;;;;;6.28;100.00;101600.38;5096453;28;20027;-72
2023/01/03 09:35:50;;;;;;;12.75;2.30;;;;;;;6.39;100.00;101602.28;5096127;28;20028;-71
2023/01/03 09:38:15;;;;;;;18.00;2.45;;;;;;;6.49;100.00;101604.44;5079860;28;20032;-72
2023/01/03 09:40:45;;;;;;;15.10;2.20;;;;;;;6.60;100.00;101592.56;5097755;28;20024;-72
2023/01/03 09:43:14;;;;;;;15.15;2.28;;;;;;;6.75;100.00;101597.59;5079108;28;20048;-72
2023/01/03 09:46:00;;;;;;;17.92;2.78;;;;;;;6.86;100.00;101599.50;5097588;28;20040;-72
2023/01/03 09:48:36;;;;;;;12.13;2.63;;;;;;;6.99;100.00;101600.28;5092442;28;20087;-72
2023/01/03 09:51:02;;;;;;;13.63;2.42;;;;;;;7.10;100.00;101593.91;5079275;28;20077;-73
2023/01/03 10:04:50;;;;;;;18.17;2.33;;;;;;;7.61;100.00;101606.00;5095929;28;20064;-72
2023/01/03 10:07:30;;;;;;;18.33;2.90;;;;;;;7.70;100.00;101614.72;5095786;28;20020;-72
2023/01/03 10:10:22;;;;;;;19.88;3.10;;;;;;;7.73;100.00;101615.06;5095850;28;20071;-72
2023/01/03 10:12:59;;;;;;;16.23;2.97;;;;;;;7.78;100.00;101601.31;5067321;28;20036;-72
2023/01/03 10:15:41;;;;;;;17.42;2.80;;;;;;;7.80;100.00;101599.16;5095569;28;20066;-72
2023/01/03 10:18:44;;;;;;;15.00;2.78;;;;;;;7.84;100.00;101593.97;5094328;28;20035;-72
2023/01/03 10:21:26;;;;;;;16.48;3.10;;;;;;;7.88;100.00;101583.22;5046812;28;20174;-72
2023/01/03 10:23:51;;;;;;;20.27;2.78;;;;;;;7.93;100.00;101597.16;5090714;28;20036;-72
2023/01/03 10:26:17;;;;;;;11.70;2.47;;;;;;;7.94;100.00;101596.91;5052945;28;20031;-72
2023/01/03 10:28:43;;;;;;;16.65;2.28;;;;;;;8.00;100.00;101592.31;5078803;28;20048;-72
2023/01/03 10:31:30;;;;;;;18.25;3.00;;;;;;;8.05;100.00;101595.13;5078702;28;20032;-72
2023/01/03 10:33:56;;;;;;;11.68;2.22;;;;;;;8.09;100.00;101590.78;5081968;28;20031;-72
2023/01/03 10:36:21;;;;;;;13.93;2.33;;;;;;;8.14;100.00;101598.34;5094978;28;20056;-72
2023/01/03 10:38:47;;;;;;;13.10;2.20;;;;;;;8.19;100.00;101592.88;5078414;28;20028;-72
2023/01/03 10:41:19;;;;;;;11.80;2.03;;;;;;;8.25;100.00;101597.44;5078552;28;20062;-73
2023/01/03 10:43:45;;;;;;;16.33;2.47;;;;;;;8.34;100.00;101592.31;5067906;28;20107;-72
2023/01/03 10:46:14;;;;;;;18.80;2.53;;;;;;;8.42;100.00;101598.28;5077802;28;20036;-73
2023/01/03 10:48:41;;;;;;;17.98;2.80;;;;;;;8.49;100.00;101595.31;5096295;28;20032;-72
2023/01/03 10:51:31;;;;;;;14.75;2.20;;;;;;;8.56;100.00;101590.47;5078367;28;20034;-73
2023/01/03 10:53:58;;;;;;;20.08;2.20;;;;;;;8.64;100.00;101580.88;5096401;28;20028;-73
2023/01/03 10:56:24;;;;;;;15.95;2.50;;;;;;;8.73;100.00;101584.88;5095914;28;20036;-72
2023/01/03 10:59:20;;;;;;;16.38;2.33;;;;;;;8.85;100.00;101582.00;5078292;28;20051;-73
2023/01/03 11:02:02;;;;;;;16.90;2.67;;;;;;;8.93;100.00;101573.25;5095050;28;20036;-72
2023/01/03 11:04:29;;;;;;;12.53;2.13;;;;;;;9.03;100.00;101580.88;5077742;28;20551;-72
2023/01/03 11:07:10;;;;;;;13.60;1.83;;;;;;;9.09;100.00;101571.50;5094684;28;20268;-72
2023/01/03 11:09:53;;;;;;;16.95;2.22;;;;;;;9.19;100.00;101571.59;5063305;28;20044;-73
2023/01/03 11:12:35;;;;;;;25.77;2.30;;;;;;;9.28;100.00;101569.25;5092153;28;20060;-72
2023/01/03 11:15:04;;;;;;;12.70;1.80;;;;;;;9.38;100.00;101567.41;5044241;28;20111;-72
2023/01/03 11:17:30;;;;;;;16.25;2.30;;;;;;;9.44;100.00;101559.97;5078038;28;20024;-73
2023/01/03 11:19:55;;;;;;;17.63;2.67;;;;;;;9.52;100.00;101572.53;5077528;28;20032;-73
2023/01/03 11:22:55;;;;;;;12.30;2.30;;;;;;;9.58;100.00;101558.50;5094711;28;20032;-73
2023/01/03 11:25:30;;;;;;;16.08;2.28;;;;;;;9.68;100.00;101551.34;5080217;28;20119;-72
2023/01/03 11:28:19;;;;;;;17.27;2.63;;;;;;;9.74;100.00;101558.63;5095891;28;20388;-73
2023/01/03 11:30:44;;;;;;;14.02;2.85;;;;;;;9.82;100.00;101547.03;5072440;28;20388;-72
2023/01/03 11:33:28;;;;;;;15.50;2.55;;;;;;;9.84;100.00;101544.84;5095584;28;20031;-72
2023/01/03 11:36:09;;;;;;;14.38;2.72;;;;;;;9.89;100.00;101544.91;5094411;28;20117;-73
2023/01/03 11:38:55;;;;;;;14.32;2.20;;;;;;;9.98;100.00;101543.31;5074308;28;20048;-72
2023/01/03 11:41:35;;;;;;;16.50;3.03;;;;;;;10.03;100.00;101537.78;5055738;28;20057;-72
2023/01/03 11:44:35;;;;;;;17.02;2.42;;;;;;;10.12;100.00;101535.38;5060739;28;20028;-72
2023/01/03 11:47:16;;;;;;;14.15;2.05;;;;;;;10.19;100.00;101535.13;5083483;28;20017;-72
2023/01/03 11:50:03;;;;;;;18.98;2.20;;;;;;;10.23;100.00;101530.72;5093981;28;20038;-73
2023/01/03 11:52:36;;;;;;;16.27;2.30;;;;;;;10.29;100.00;101541.63;5095607;28;20067;-73
2023/01/03 11:55:33;;;;;;;16.98;2.47;;;;;;;10.36;100.00;101533.03;5061225;28;20039;-72
2023/01/03 11:58:10;;;;;;;17.08;2.15;;;;;;;10.37;100.00;101534.75;5094936;28;20028;-72
2023/01/03 12:00:47;;;;;;;18.52;2.10;;;;;;;10.40;100.00;101520.31;5099659;28;20115;-72
2023/01/03 12:03:44;;;;;;;16.60;2.65;;;;;;;10.43;100.00;101532.84;5082967;28;20028;-72
2023/01/03 12:06:16;;;;;;;13.10;2.10;;;;;;;10.47;100.00;101526.47;5081120;28;20029;-73
2023/01/03 12:09:04;;;;;;;9.17;1.90;;;;;;;10.48;100.00;101511.47;5098291;28;20031;-72
2023/01/03 12:11:44;;;;;;;14.57;1.85;;;;;;;10.49;100.00;101509.53;5098130;28;20062;-73
2023/01/03 12:14:22;;;;;;;16.73;2.17;;;;;;;10.52;100.00;101512.59;5097997;28;20032;-72
2023/01/03 12:16:59;;;;;;;10.95;2.25;;;;;;;10.54;100.00;101511.50;5081340;28;20035;-73
2023/01/03 12:19:35;;;;;;;11.93;2.25;;;;;;;10.52;100.00;101507.03;5090431;28;20119;-72
2023/01/03 12:22:40;;;;;;;13.63;2.13;;;;;;;10.54;100.00;101508.72;5071363;28;20036;-72
2023/01/03 12:25:14;;;;;;;18.67;2.58;;;;;;;10.53;100.00;101496.78;5064621;28;20115;-72
2023/01/03 12:27:45;;;;;;;15.73;1.98;;;;;;;10.55;100.00;101499.28;5089517;28;20028;-73
2023/01/03 12:30:27;;;;;;;10.57;1.50;;;;;;;10.50;100.00;101492.63;5093897;28;20090;-72
2023/01/03 12:33:14;;;;;;;14.05;2.20;;;;;;;10.51;100.00;101499.81;5097652;28;20119;-72
2023/01/03 12:35:45;;;;;;;14.25;2.30;;;;;;;10.50;100.00;101492.63;5073495;28;20553;-72